sensor_id;sensor_type;location;lat;lon;timestamp;temperature;humidity
21193;DHT22;10754;51.106;7.164;2023-06-10T00:00:11;24.70;99.90
21193;DHT22;10754;51.106;7.164;2023-06-10T00:02:39;24.70;99.90
21193;DHT22;10754;51.106;7.164;2023-06-10T00:05:05;24.80;99.90
21193;DHT22;10754;51.106;7.164;2023-06-10T00:07:33;24.70;99.90
21193;DHT22;10754;51.106;7.164;2023-06-10T00:09:59;24.70;99.90
21193;DHT22;10754;51.106;7.164;2023-06-10T00:12:24;24.70;99.90
21193;DHT22;10754;51.106;7.164;2023-06-10T00:14:50;24.70;99.90
21193;DHT22;10754;51.106;7.164;2023-06-10T00:17:17;24.70;99.90
21193;DHT22;10754;51.106;7.164;2023-06-10T00:19:43;24.60;99.90
21193;DHT22;10754;51.106;7.164;2023-06-10T00:22:09;24.70;99.90
21193;DHT22;10754;51.106;7.164;2023-06-10T00:24:35;24.60;99.90
21193;DHT22;10754;51.106;7.164;2023-06-10T00:27:01;24.50;99.90
21193;DHT22;10754;51.106;7.164;2023-06-10T00:29:26;24.50;99.90
21193;DHT22;10754;51.106;7.164;2023-06-10T00:31:52;24.60;99.90
21193;DHT22;10754;51.106;7.164;2023-06-10T00:34:23;24.50;99.90
21193;DHT22;10754;51.106;7.164;2023-06-10T00:36:48;24.50;99.90
21193;DHT22;10754;51.106;7.164;2023-06-10T00:39:14;24.50;99.90
21193;DHT22;10754;51.106;7.164;2023-06-10T00:41:39;24.50;99.90
21193;DHT22;10754;51.106;7.164;2023-06-10T00:44:05;24.50;99.90
21193;DHT22;10754;51.106;7.164;2023-06-10T00:46:31;24.50;99.90
21193;DHT22;10754;51.106;7.164;2023-06-10T00:48:58;24.40;99.90
21193;DHT22;10754;51.106;7.164;2023-06-10T00:51:23;24.40;99.90
21193;DHT22;10754;51.106;7.164;2023-06-10T00:53:49;24.40;99.90
21193;DHT22;10754;51.106;7.164;2023-06-10T00:56:15;24.40;99.90
21193;DHT22;10754;51.106;7.164;2023-06-10T00:58:41;24.30;99.90
21193;DHT22;10754;51.106;7.164;2023-06-10T01:01:06;24.30;99.90
21193;DHT22;10754;51.106;7.164;2023-06-10T01:03:32;24.30;99.90
21193;DHT22;10754;51.106;7.164;2023-06-10T01:06:08;24.30;99.90
21193;DHT22;10754;51.106;7.164;2023-06-10T01:09:02;24.30;99.90
21193;DHT22;10754;51.106;7.164;2023-06-10T01:11:35;24.30;99.90
21193;DHT22;10754;51.106;7.164;2023-06-10T01:14:03;24.30;99.90
21193;DHT22;10754;51.106;7.164;2023-06-10T01:16:30;24.30;99.90
21193;DHT22;10754;51.106;7.164;2023-06-10T01:18:56;24.20;99.90
21193;DHT22;10754;51.106;7.164;2023-06-10T01:21:23;24.30;99.90
21193;DHT22;10754;51.106;7.164;2023-06-10T01:23:53;24.20;99.90
21193;DHT22;10754;51.106;7.164;2023-06-10T01:26:24;24.30;99.90
21193;DHT22;10754;51.106;7.164;2023-06-10T01:29:07;24.30;99.90
21193;DHT22;10754;51.106;7.164;2023-06-10T01:34:13;24.20;99.90
21193;DHT22;10754;51.106;7.164;2023-06-10T01:36:41;24.30;99.90
21193;DHT22;10754;51.106;7.164;2023-06-10T01:39:08;24.30;99.90
21193;DHT22;10754;51.106;7.164;2023-06-10T01:41:36;24.30;99.90
21193;DHT22;10754;51.106;7.164;2023-06-10T01:44:02;24.20;99.90
21193;DHT22;10754;51.106;7.164;2023-06-10T01:46:28;24.10;99.90
21193;DHT22;10754;51.106;7.164;2023-06-10T01:48:53;24.10;99.90
21193;DHT22;10754;51.106;7.164;2023-06-10T01:51:19;24.10;99.90
21193;DHT22;10754;51.106;7.164;2023-06-10T01:53:44;24.10;99.90
21193;DHT22;10754;51.106;7.164;2023-06-10T01:56:10;24.10;99.90
21193;DHT22;10754;51.106;7.164;2023-06-10T01:58:42;24.00;99.90
21193;DHT22;10754;51.106;7.164;2023-06-10T02:01:07;24.00;99.90
21193;DHT22;10754;51.106;7.164;2023-06-10T02:03:33;24.10;99.90
21193;DHT22;10754;51.106;7.164;2023-06-10T02:05:58;24.00;99.90
21193;DHT22;10754;51.106;7.164;2023-06-10T02:08:24;24.00;99.90
21193;DHT22;10754;51.106;7.164;2023-06-10T02:10:49;24.00;99.90
21193;DHT22;10754;51.106;7.164;2023-06-10T02:13:15;24.00;99.90
21193;DHT22;10754;51.106;7.164;2023-06-10T02:15:40;24.00;99.90
21193;DHT22;10754;51.106;7.164;2023-06-10T02:18:06;24.00;99.90
21193;DHT22;10754;51.106;7.164;2023-06-10T02:20:31;24.00;99.90
21193;DHT22;10754;51.106;7.164;2023-06-10T02:22:57;24.00;99.90
21193;DHT22;10754;51.106;7.164;2023-06-10T02:25:23;24.00;99.90
21193;DHT22;10754;51.106;7.164;2023-06-10T02:27:49;23.90;99.90
21193;DHT22;10754;51.106;7.164;2023-06-10T02:30:14;23.90;99.90
21193;DHT22;10754;51.106;7.164;2023-06-10T02:32:40;23.90;99.90
21193;DHT22;10754;51.106;7.164;2023-06-10T02:35:06;23.90;99.90
21193;DHT22;10754;51.106;7.164;2023-06-10T02:37:32;23.90;99.90
21193;DHT22;10754;51.106;7.164;2023-06-10T02:39:57;23.90;99.90
21193;DHT22;10754;51.106;7.164;2023-06-10T02:42:23;23.80;99.90
21193;DHT22;10754;51.106;7.164;2023-06-10T02:44:48;23.80;99.90
21193;DHT22;10754;51.106;7.164;2023-06-10T02:47:14;23.80;99.90
21193;DHT22;10754;51.106;7.164;2023-06-10T02:49:39;23.80;99.90
21193;DHT22;10754;51.106;7.164;2023-06-10T02:52:05;23.90;99.90
21193;DHT22;10754;51.106;7.164;2023-06-10T02:54:33;23.80;99.90
21193;DHT22;10754;51.106;7.164;2023-06-10T02:56:58;23.80;99.90
21193;DHT22;10754;51.106;7.164;2023-06-10T02:59:24;23.80;99.90
21193;DHT22;10754;51.106;7.164;2023-06-10T03:01:52;23.80;99.90
21193;DHT22;10754;51.106;7.164;2023-06-10T03:04:17;23.80;99.90
21193;DHT22;10754;51.106;7.164;2023-06-10T03:06:43;23.70;99.90
21193;DHT22;10754;51.106;7.164;2023-06-10T03:09:10;23.70;99.90
21193;DHT22;10754;51.106;7.164;2023-06-10T03:11:36;23.80;99.90
21193;DHT22;10754;51.106;7.164;2023-06-10T03:14:02;23.70;99.90
21193;DHT22;10754;51.106;7.164;2023-06-10T03:16:27;23.70;99.90
21193;DHT22;10754;51.106;7.164;2023-06-10T03:18:53;23.70;99.90
21193;DHT22;10754;51.106;7.164;2023-06-10T03:21:19;23.60;99.90
21193;DHT22;10754;51.106;7.164;2023-06-10T03:23:45;23.70;99.90
21193;DHT22;10754;51.106;7.164;2023-06-10T03:26:11;23.70;99.90
21193;DHT22;10754;51.106;7.164;2023-06-10T03:28:37;23.60;99.90
21193;DHT22;10754;51.106;7.164;2023-06-10T03:31:03;23.60;99.90
21193;DHT22;10754;51.106;7.164;2023-06-10T03:33:29;23.60;99.90
21193;DHT22;10754;51.106;7.164;2023-06-10T03:35:55;23.60;99.90
21193;DHT22;10754;51.106;7.164;2023-06-10T03:38:20;23.60;99.90
21193;DHT22;10754;51.106;7.164;2023-06-10T03:40:46;23.60;99.90
21193;DHT22;10754;51.106;7.164;2023-06-10T03:43:12;23.60;99.90
21193;DHT22;10754;51.106;7.164;2023-06-10T03:45:37;23.50;99.90
21193;DHT22;10754;51.106;7.164;2023-06-10T03:48:03;23.50;99.90
21193;DHT22;10754;51.106;7.164;2023-06-10T03:50:29;23.50;99.90
21193;DHT22;10754;51.106;7.164;2023-06-10T03:52:55;23.60;99.90
21193;DHT22;10754;51.106;7.164;2023-06-10T03:55:21;23.70;99.90
21193;DHT22;10754;51.106;7.164;2023-06-10T03:57:47;23.70;99.90
21193;DHT22;10754;51.106;7.164;2023-06-10T04:00:14;23.60;99.90
21193;DHT22;10754;51.106;7.164;2023-06-10T04:02:40;23.50;99.90
21193;DHT22;10754;51.106;7.164;2023-06-10T04:05:11;23.40;99.90
21193;DHT22;10754;51.106;7.164;2023-06-10T04:07:37;23.30;99.90
21193;DHT22;10754;51.106;7.164;2023-06-10T04:10:05;23.30;99.90
21193;DHT22;10754;51.106;7.164;2023-06-10T04:12:30;23.30;99.90
21193;DHT22;10754;51.106;7.164;2023-06-10T04:14:56;23.40;99.90
21193;DHT22;10754;51.106;7.164;2023-06-10T04:17:21;23.40;99.90
21193;DHT22;10754;51.106;7.164;2023-06-10T04:19:47;23.50;99.90
21193;DHT22;10754;51.106;7.164;2023-06-10T04:22:12;23.50;99.90
21193;DHT22;10754;51.106;7.164;2023-06-10T04:24:38;23.50;99.90
21193;DHT22;10754;51.106;7.164;2023-06-10T04:27:04;23.50;99.90
21193;DHT22;10754;51.106;7.164;2023-06-10T04:29:29;23.50;99.90
21193;DHT22;10754;51.106;7.164;2023-06-10T04:31:56;23.50;99.90
21193;DHT22;10754;51.106;7.164;2023-06-10T04:34:21;23.50;99.90
21193;DHT22;10754;51.106;7.164;2023-06-10T04:36:47;23.40;99.90
21193;DHT22;10754;51.106;7.164;2023-06-10T04:39:13;23.40;99.90
21193;DHT22;10754;51.106;7.164;2023-06-10T04:41:38;23.40;99.90
21193;DHT22;10754;51.106;7.164;2023-06-10T04:44:04;23.40;99.90
21193;DHT22;10754;51.106;7.164;2023-06-10T04:46:29;23.30;99.90
21193;DHT22;10754;51.106;7.164;2023-06-10T04:48:57;23.30;99.90
21193;DHT22;10754;51.106;7.164;2023-06-10T04:51:22;23.30;99.90
21193;DHT22;10754;51.106;7.164;2023-06-10T04:53:48;23.30;99.90
21193;DHT22;10754;51.106;7.164;2023-06-10T04:56:13;23.30;99.90
21193;DHT22;10754;51.106;7.164;2023-06-10T04:58:40;23.30;99.90
21193;DHT22;10754;51.106;7.164;2023-06-10T05:01:05;23.30;99.90
21193;DHT22;10754;51.106;7.164;2023-06-10T05:03:31;23.30;99.90
21193;DHT22;10754;51.106;7.164;2023-06-10T05:05:56;23.30;99.90
21193;DHT22;10754;51.106;7.164;2023-06-10T05:08:22;23.30;99.90
21193;DHT22;10754;51.106;7.164;2023-06-10T05:10:47;23.30;99.90
21193;DHT22;10754;51.106;7.164;2023-06-10T05:13:13;23.30;99.90
21193;DHT22;10754;51.106;7.164;2023-06-10T05:15:38;23.30;99.90
21193;DHT22;10754;51.106;7.164;2023-06-10T05:18:04;23.30;99.90
21193;DHT22;10754;51.106;7.164;2023-06-10T05:20:29;23.20;99.90
21193;DHT22;10754;51.106;7.164;2023-06-10T05:22:55;23.20;99.90
21193;DHT22;10754;51.106;7.164;2023-06-10T05:25:21;23.30;99.90
21193;DHT22;10754;51.106;7.164;2023-06-10T05:27:46;23.30;99.90
21193;DHT22;10754;51.106;7.164;2023-06-10T05:30:12;23.30;99.90
21193;DHT22;10754;51.106;7.164;2023-06-10T05:32:38;23.30;99.90
21193;DHT22;10754;51.106;7.164;2023-06-10T05:35:04;23.30;99.90
21193;DHT22;10754;51.106;7.164;2023-06-10T05:37:30;23.30;99.90
21193;DHT22;10754;51.106;7.164;2023-06-10T05:39:55;23.30;99.90
21193;DHT22;10754;51.106;7.164;2023-06-10T05:42:21;23.30;99.90
21193;DHT22;10754;51.106;7.164;2023-06-10T05:44:46;23.30;99.90
21193;DHT22;10754;51.106;7.164;2023-06-10T05:47:12;23.30;99.90
21193;DHT22;10754;51.106;7.164;2023-06-10T05:49:37;23.30;99.90
21193;DHT22;10754;51.106;7.164;2023-06-10T05:52:03;23.30;99.90
21193;DHT22;10754;51.106;7.164;2023-06-10T05:54:29;23.20;99.90
21193;DHT22;10754;51.106;7.164;2023-06-10T05:56:54;23.30;99.90
21193;DHT22;10754;51.106;7.164;2023-06-10T05:59:20;23.30;99.90
21193;DHT22;10754;51.106;7.164;2023-06-10T06:01:48;23.20;99.90
21193;DHT22;10754;51.106;7.164;2023-06-10T06:04:14;23.30;99.90
21193;DHT22;10754;51.106;7.164;2023-06-10T06:06:39;23.40;99.90
21193;DHT22;10754;51.106;7.164;2023-06-10T06:09:05;23.40;99.90
21193;DHT22;10754;51.106;7.164;2023-06-10T06:11:31;23.50;99.90
21193;DHT22;10754;51.106;7.164;2023-06-10T06:13:56;23.50;99.90
21193;DHT22;10754;51.106;7.164;2023-06-10T06:16:23;23.50;99.90
21193;DHT22;10754;51.106;7.164;2023-06-10T06:18:48;23.60;99.90
21193;DHT22;10754;51.106;7.164;2023-06-10T06:21:14;23.60;99.90
21193;DHT22;10754;51.106;7.164;2023-06-10T06:23:39;23.70;99.90
21193;DHT22;10754;51.106;7.164;2023-06-10T06:26:05;23.70;99.90
21193;DHT22;10754;51.106;7.164;2023-06-10T06:28:30;23.60;99.90
21193;DHT22;10754;51.106;7.164;2023-06-10T06:30:57;23.70;99.90
21193;DHT22;10754;51.106;7.164;2023-06-10T06:33:22;23.70;99.90
21193;DHT22;10754;51.106;7.164;2023-06-10T06:35:48;23.70;99.90
21193;DHT22;10754;51.106;7.164;2023-06-10T06:38:13;23.80;99.90
21193;DHT22;10754;51.106;7.164;2023-06-10T06:40:39;23.80;99.90
21193;DHT22;10754;51.106;7.164;2023-06-10T06:43:04;23.90;99.90
21193;DHT22;10754;51.106;7.164;2023-06-10T06:45:30;23.90;99.90
21193;DHT22;10754;51.106;7.164;2023-06-10T06:47:55;23.90;99.90
21193;DHT22;10754;51.106;7.164;2023-06-10T06:50:21;23.90;99.90
21193;DHT22;10754;51.106;7.164;2023-06-10T06:52:47;23.90;99.90
21193;DHT22;10754;51.106;7.164;2023-06-10T06:55:12;24.00;99.90
21193;DHT22;10754;51.106;7.164;2023-06-10T06:57:38;24.00;99.90
21193;DHT22;10754;51.106;7.164;2023-06-10T07:00:04;24.10;99.90
21193;DHT22;10754;51.106;7.164;2023-06-10T07:02:30;24.30;99.90
21193;DHT22;10754;51.106;7.164;2023-06-10T07:04:57;24.40;99.90
21193;DHT22;10754;51.106;7.164;2023-06-10T07:07:24;24.40;99.90
21193;DHT22;10754;51.106;7.164;2023-06-10T07:09:49;24.40;99.90
21193;DHT22;10754;51.106;7.164;2023-06-10T07:12:15;24.40;99.90
21193;DHT22;10754;51.106;7.164;2023-06-10T07:14:40;24.50;99.90
21193;DHT22;10754;51.106;7.164;2023-06-10T07:17:06;24.50;99.90
21193;DHT22;10754;51.106;7.164;2023-06-10T07:19:31;24.60;99.90
21193;DHT22;10754;51.106;7.164;2023-06-10T07:21:57;24.60;99.90
21193;DHT22;10754;51.106;7.164;2023-06-10T07:24:22;24.80;99.90
21193;DHT22;10754;51.106;7.164;2023-06-10T07:26:48;24.80;99.90
21193;DHT22;10754;51.106;7.164;2023-06-10T07:29:13;24.80;99.90
21193;DHT22;10754;51.106;7.164;2023-06-10T07:31:41;24.80;99.90
21193;DHT22;10754;51.106;7.164;2023-06-10T07:34:06;24.90;99.90
21193;DHT22;10754;51.106;7.164;2023-06-10T07:36:31;24.90;99.90
21193;DHT22;10754;51.106;7.164;2023-06-10T07:38:57;24.90;99.90
21193;DHT22;10754;51.106;7.164;2023-06-10T07:41:23;25.00;99.90
21193;DHT22;10754;51.106;7.164;2023-06-10T07:43:51;25.00;99.90
21193;DHT22;10754;51.106;7.164;2023-06-10T07:46:20;24.90;99.90
21193;DHT22;10754;51.106;7.164;2023-06-10T07:48:47;25.00;99.90
21193;DHT22;10754;51.106;7.164;2023-06-10T07:51:12;25.10;99.90
21193;DHT22;10754;51.106;7.164;2023-06-10T07:53:38;25.10;99.90
21193;DHT22;10754;51.106;7.164;2023-06-10T07:56:03;25.30;99.90
21193;DHT22;10754;51.106;7.164;2023-06-10T07:58:29;25.30;99.90
21193;DHT22;10754;51.106;7.164;2023-06-10T08:00:54;25.30;99.90
21193;DHT22;10754;51.106;7.164;2023-06-10T08:03:20;25.50;99.90
21193;DHT22;10754;51.106;7.164;2023-06-10T08:05:45;25.60;99.90
21193;DHT22;10754;51.106;7.164;2023-06-10T08:08:11;25.70;99.90
21193;DHT22;10754;51.106;7.164;2023-06-10T08:10:36;25.50;99.90
21193;DHT22;10754;51.106;7.164;2023-06-10T08:13:02;25.50;99.90
21193;DHT22;10754;51.106;7.164;2023-06-10T08:15:27;25.50;99.90
21193;DHT22;10754;51.106;7.164;2023-06-10T08:17:53;25.60;99.90
21193;DHT22;10754;51.106;7.164;2023-06-10T08:20:18;25.70;99.90
21193;DHT22;10754;51.106;7.164;2023-06-10T08:22:44;25.70;99.90
21193;DHT22;10754;51.106;7.164;2023-06-10T08:25:09;25.90;99.90
21193;DHT22;10754;51.106;7.164;2023-06-10T08:27:35;26.00;99.90
21193;DHT22;10754;51.106;7.164;2023-06-10T08:30:01;26.10;99.90
21193;DHT22;10754;51.106;7.164;2023-06-10T08:32:26;26.10;99.90
21193;DHT22;10754;51.106;7.164;2023-06-10T08:34:52;26.30;99.90
21193;DHT22;10754;51.106;7.164;2023-06-10T08:37:17;26.30;99.90
21193;DHT22;10754;51.106;7.164;2023-06-10T08:39:43;26.30;99.90
21193;DHT22;10754;51.106;7.164;2023-06-10T08:42:32;26.20;99.90
21193;DHT22;10754;51.106;7.164;2023-06-10T08:45:01;26.30;99.90
21193;DHT22;10754;51.106;7.164;2023-06-10T08:47:29;26.20;99.90
21193;DHT22;10754;51.106;7.164;2023-06-10T08:49:57;26.20;99.90
21193;DHT22;10754;51.106;7.164;2023-06-10T08:52:29;26.20;99.90
21193;DHT22;10754;51.106;7.164;2023-06-10T08:55:00;26.20;99.90
21193;DHT22;10754;51.106;7.164;2023-06-10T08:57:27;26.50;99.90
21193;DHT22;10754;51.106;7.164;2023-06-10T08:59:53;27.00;99.90
21193;DHT22;10754;51.106;7.164;2023-06-10T09:02:20;26.80;99.90
21193;DHT22;10754;51.106;7.164;2023-06-10T09:04:47;26.60;99.90
21193;DHT22;10754;51.106;7.164;2023-06-10T09:07:15;26.60;99.90
21193;DHT22;10754;51.106;7.164;2023-06-10T09:09:43;26.60;99.90
21193;DHT22;10754;51.106;7.164;2023-06-10T09:12:09;26.60;99.90
21193;DHT22;10754;51.106;7.164;2023-06-10T09:14:34;26.50;99.90
21193;DHT22;10754;51.106;7.164;2023-06-10T09:17:00;26.50;99.90
21193;DHT22;10754;51.106;7.164;2023-06-10T09:19:27;26.70;99.90
21193;DHT22;10754;51.106;7.164;2023-06-10T09:21:53;26.70;99.90
21193;DHT22;10754;51.106;7.164;2023-06-10T09:24:18;26.70;99.90
21193;DHT22;10754;51.106;7.164;2023-06-10T09:26:44;26.80;99.90
21193;DHT22;10754;51.106;7.164;2023-06-10T09:29:11;26.80;99.90
21193;DHT22;10754;51.106;7.164;2023-06-10T09:31:38;26.90;99.90
21193;DHT22;10754;51.106;7.164;2023-06-10T09:34:14;27.00;99.90
21193;DHT22;10754;51.106;7.164;2023-06-10T09:36:41;27.00;99.90
21193;DHT22;10754;51.106;7.164;2023-06-10T09:39:17;27.10;99.90
21193;DHT22;10754;51.106;7.164;2023-06-10T09:41:44;27.30;99.90
21193;DHT22;10754;51.106;7.164;2023-06-10T09:44:15;27.40;99.90
21193;DHT22;10754;51.106;7.164;2023-06-10T09:46:42;27.80;99.90
21193;DHT22;10754;51.106;7.164;2023-06-10T09:49:07;27.90;99.90
21193;DHT22;10754;51.106;7.164;2023-06-10T09:51:33;28.30;99.90
21193;DHT22;10754;51.106;7.164;2023-06-10T09:53:59;28.20;99.90
21193;DHT22;10754;51.106;7.164;2023-06-10T09:56:37;28.50;99.90
21193;DHT22;10754;51.106;7.164;2023-06-10T09:59:03;28.40;99.90
21193;DHT22;10754;51.106;7.164;2023-06-10T10:01:31;28.40;99.90
21193;DHT22;10754;51.106;7.164;2023-06-10T10:03:59;28.40;99.90
21193;DHT22;10754;51.106;7.164;2023-06-10T10:06:25;28.60;99.90
21193;DHT22;10754;51.106;7.164;2023-06-10T10:08:51;28.60;99.90
21193;DHT22;10754;51.106;7.164;2023-06-10T10:11:19;28.60;99.90
21193;DHT22;10754;51.106;7.164;2023-06-10T10:13:49;28.90;99.90
21193;DHT22;10754;51.106;7.164;2023-06-10T10:16:17;29.20;99.90
21193;DHT22;10754;51.106;7.164;2023-06-10T10:18:53;29.30;99.90
21193;DHT22;10754;51.106;7.164;2023-06-10T10:21:23;29.50;99.90
21193;DHT22;10754;51.106;7.164;2023-06-10T10:23:58;29.90;99.90
21193;DHT22;10754;51.106;7.164;2023-06-10T10:26:27;29.70;99.90
21193;DHT22;10754;51.106;7.164;2023-06-10T10:29:10;29.70;99.90
21193;DHT22;10754;51.106;7.164;2023-06-10T10:31:37;29.70;99.90
21193;DHT22;10754;51.106;7.164;2023-06-10T10:34:07;29.70;99.90
21193;DHT22;10754;51.106;7.164;2023-06-10T10:36:34;30.10;99.90
21193;DHT22;10754;51.106;7.164;2023-06-10T10:39:01;30.20;99.90
21193;DHT22;10754;51.106;7.164;2023-06-10T10:41:30;30.30;99.90
21193;DHT22;10754;51.106;7.164;2023-06-10T10:43:56;30.50;99.90
21193;DHT22;10754;51.106;7.164;2023-06-10T10:46:22;31.00;99.90
21193;DHT22;10754;51.106;7.164;2023-06-10T10:48:52;31.00;99.90
21193;DHT22;10754;51.106;7.164;2023-06-10T10:51:19;31.20;99.90
21193;DHT22;10754;51.106;7.164;2023-06-10T10:54:11;31.30;99.90
21193;DHT22;10754;51.106;7.164;2023-06-10T10:56:37;31.70;99.90
21193;DHT22;10754;51.106;7.164;2023-06-10T10:59:04;31.30;99.90
21193;DHT22;10754;51.106;7.164;2023-06-10T11:01:40;31.20;99.90
21193;DHT22;10754;51.106;7.164;2023-06-10T11:04:08;31.40;99.90
21193;DHT22;10754;51.106;7.164;2023-06-10T11:06:35;31.20;99.90
21193;DHT22;10754;51.106;7.164;2023-06-10T11:09:00;30.80;99.90
21193;DHT22;10754;51.106;7.164;2023-06-10T11:11:27;30.80;99.90
21193;DHT22;10754;51.106;7.164;2023-06-10T11:14:07;30.90;99.90
21193;DHT22;10754;51.106;7.164;2023-06-10T11:16:41;31.00;99.90
21193;DHT22;10754;51.106;7.164;2023-06-10T11:19:08;30.80;99.90
21193;DHT22;10754;51.106;7.164;2023-06-10T11:21:57;30.70;99.90
21193;DHT22;10754;51.106;7.164;2023-06-10T11:24:23;30.70;99.90
21193;DHT22;10754;51.106;7.164;2023-06-10T11:26:49;30.30;99.90
21193;DHT22;10754;51.106;7.164;2023-06-10T11:29:15;30.10;99.90
21193;DHT22;10754;51.106;7.164;2023-06-10T11:31:44;29.90;99.90
21193;DHT22;10754;51.106;7.164;2023-06-10T11:34:10;29.80;99.90
21193;DHT22;10754;51.106;7.164;2023-06-10T11:36:39;29.90;99.90
21193;DHT22;10754;51.106;7.164;2023-06-10T11:39:10;30.30;99.90
21193;DHT22;10754;51.106;7.164;2023-06-10T11:41:37;30.60;99.90
21193;DHT22;10754;51.106;7.164;2023-06-10T11:44:08;30.60;99.90
21193;DHT22;10754;51.106;7.164;2023-06-10T11:46:35;30.80;99.90
21193;DHT22;10754;51.106;7.164;2023-06-10T11:49:01;30.90;99.90
21193;DHT22;10754;51.106;7.164;2023-06-10T11:51:29;31.10;99.90
21193;DHT22;10754;51.106;7.164;2023-06-10T11:53:55;31.20;99.90
21193;DHT22;10754;51.106;7.164;2023-06-10T11:56:25;31.20;99.90
21193;DHT22;10754;51.106;7.164;2023-06-10T11:58:56;31.10;99.90
21193;DHT22;10754;51.106;7.164;2023-06-10T12:01:24;31.20;99.90
21193;DHT22;10754;51.106;7.164;2023-06-10T12:04:04;31.50;99.90
21193;DHT22;10754;51.106;7.164;2023-06-10T12:06:49;31.70;99.90
21193;DHT22;10754;51.106;7.164;2023-06-10T12:09:25;31.40;99.90
21193;DHT22;10754;51.106;7.164;2023-06-10T12:12:02;31.20;99.90
21193;DHT22;10754;51.106;7.164;2023-06-10T12:17:20;30.90;99.90
21193;DHT22;10754;51.106;7.164;2023-06-10T12:19:47;30.70;99.90
21193;DHT22;10754;51.106;7.164;2023-06-10T12:22:13;30.70;99.90
21193;DHT22;10754;51.106;7.164;2023-06-10T12:24:56;30.80;99.90
21193;DHT22;10754;51.106;7.164;2023-06-10T12:27:24;30.80;99.90
21193;DHT22;10754;51.106;7.164;2023-06-10T12:29:53;30.70;99.90
21193;DHT22;10754;51.106;7.164;2023-06-10T12:32:19;30.70;99.90
21193;DHT22;10754;51.106;7.164;2023-06-10T12:34:48;30.70;99.90
21193;DHT22;10754;51.106;7.164;2023-06-10T12:37:13;30.80;99.90
21193;DHT22;10754;51.106;7.164;2023-06-10T12:39:40;31.60;99.90
21193;DHT22;10754;51.106;7.164;2023-06-10T12:42:06;33.00;99.90
21193;DHT22;10754;51.106;7.164;2023-06-10T12:44:39;34.10;99.90
21193;DHT22;10754;51.106;7.164;2023-06-10T12:47:09;34.00;99.90
21193;DHT22;10754;51.106;7.164;2023-06-10T12:49:35;33.80;99.90
21193;DHT22;10754;51.106;7.164;2023-06-10T12:52:01;33.80;99.90
21193;DHT22;10754;51.106;7.164;2023-06-10T12:54:27;33.90;99.90
21193;DHT22;10754;51.106;7.164;2023-06-10T12:56:52;34.20;99.90
21193;DHT22;10754;51.106;7.164;2023-06-10T12:59:18;34.00;99.90
21193;DHT22;10754;51.106;7.164;2023-06-10T13:01:49;34.00;99.90
21193;DHT22;10754;51.106;7.164;2023-06-10T13:04:16;34.50;99.90
21193;DHT22;10754;51.106;7.164;2023-06-10T13:06:41;34.90;52.60
21193;DHT22;10754;51.106;7.164;2023-06-10T13:09:07;35.20;75.10
21193;DHT22;10754;51.106;7.164;2023-06-10T13:11:32;35.10;99.90
21193;DHT22;10754;51.106;7.164;2023-06-10T13:13:58;35.10;99.90
21193;DHT22;10754;51.106;7.164;2023-06-10T13:16:23;35.40;90.10
21193;DHT22;10754;51.106;7.164;2023-06-10T13:18:49;35.60;58.20
21193;DHT22;10754;51.106;7.164;2023-06-10T13:21:15;35.70;59.70
21193;DHT22;10754;51.106;7.164;2023-06-10T13:23:40;35.80;44.90
21193;DHT22;10754;51.106;7.164;2023-06-10T13:26:09;35.40;67.20
21193;DHT22;10754;51.106;7.164;2023-06-10T13:28:34;35.00;51.60
21193;DHT22;10754;51.106;7.164;2023-06-10T13:31:00;34.50;60.40
21193;DHT22;10754;51.106;7.164;2023-06-10T13:33:25;34.00;75.20
21193;DHT22;10754;51.106;7.164;2023-06-10T13:35:51;33.60;88.60
21193;DHT22;10754;51.106;7.164;2023-06-10T13:38:16;33.40;92.60
21193;DHT22;10754;51.106;7.164;2023-06-10T13:40:42;33.30;91.50
21193;DHT22;10754;51.106;7.164;2023-06-10T13:43:07;33.00;92.30
21193;DHT22;10754;51.106;7.164;2023-06-10T13:45:35;32.70;99.90
21193;DHT22;10754;51.106;7.164;2023-06-10T13:48:00;32.70;99.90
21193;DHT22;10754;51.106;7.164;2023-06-10T13:50:26;32.80;99.90
21193;DHT22;10754;51.106;7.164;2023-06-10T13:52:52;33.30;99.90
21193;DHT22;10754;51.106;7.164;2023-06-10T13:55:17;33.20;99.90
21193;DHT22;10754;51.106;7.164;2023-06-10T13:57:44;33.50;99.90
21193;DHT22;10754;51.106;7.164;2023-06-10T14:00:10;33.80;99.90
21193;DHT22;10754;51.106;7.164;2023-06-10T14:02:35;34.10;79.90
21193;DHT22;10754;51.106;7.164;2023-06-10T14:05:01;34.30;91.30
21193;DHT22;10754;51.106;7.164;2023-06-10T14:07:27;34.40;79.90
21193;DHT22;10754;51.106;7.164;2023-06-10T14:09:52;34.70;69.60
21193;DHT22;10754;51.106;7.164;2023-06-10T14:12:18;34.90;57.70
21193;DHT22;10754;51.106;7.164;2023-06-10T14:14:43;35.00;56.90
21193;DHT22;10754;51.106;7.164;2023-06-10T14:17:09;34.90;69.10
21193;DHT22;10754;51.106;7.164;2023-06-10T14:19:34;34.80;67.60
21193;DHT22;10754;51.106;7.164;2023-06-10T14:22:00;35.00;38.30
21193;DHT22;10754;51.106;7.164;2023-06-10T14:24:25;34.80;56.60
21193;DHT22;10754;51.106;7.164;2023-06-10T14:26:51;34.70;63.00
21193;DHT22;10754;51.106;7.164;2023-06-10T14:29:16;34.60;71.80
21193;DHT22;10754;51.106;7.164;2023-06-10T14:31:43;34.50;72.10
21193;DHT22;10754;51.106;7.164;2023-06-10T14:34:09;34.50;65.60
21193;DHT22;10754;51.106;7.164;2023-06-10T14:36:34;34.80;41.30
21193;DHT22;10754;51.106;7.164;2023-06-10T14:39:00;34.90;31.40
21193;DHT22;10754;51.106;7.164;2023-06-10T14:41:26;34.70;38.60
21193;DHT22;10754;51.106;7.164;2023-06-10T14:43:52;34.60;80.00
21193;DHT22;10754;51.106;7.164;2023-06-10T14:46:18;34.50;69.60
21193;DHT22;10754;51.106;7.164;2023-06-10T14:48:46;34.50;68.40
21193;DHT22;10754;51.106;7.164;2023-06-10T14:51:11;34.40;66.60
21193;DHT22;10754;51.106;7.164;2023-06-10T14:53:37;34.20;65.00
21193;DHT22;10754;51.106;7.164;2023-06-10T14:56:02;34.40;46.80
21193;DHT22;10754;51.106;7.164;2023-06-10T14:58:28;34.40;40.00
21193;DHT22;10754;51.106;7.164;2023-06-10T15:00:53;34.20;44.70
21193;DHT22;10754;51.106;7.164;2023-06-10T15:03:19;33.90;74.80
21193;DHT22;10754;51.106;7.164;2023-06-10T15:05:44;33.90;53.00
21193;DHT22;10754;51.106;7.164;2023-06-10T15:08:10;33.80;55.20
21193;DHT22;10754;51.106;7.164;2023-06-10T15:10:36;33.80;54.20
21193;DHT22;10754;51.106;7.164;2023-06-10T15:13:02;33.60;73.80
21193;DHT22;10754;51.106;7.164;2023-06-10T15:15:27;33.30;91.70
21193;DHT22;10754;51.106;7.164;2023-06-10T15:17:53;33.10;98.20
21193;DHT22;10754;51.106;7.164;2023-06-10T15:20:19;33.00;99.90
21193;DHT22;10754;51.106;7.164;2023-06-10T15:22:45;33.00;94.00
21193;DHT22;10754;51.106;7.164;2023-06-10T15:25:10;33.50;66.20
21193;DHT22;10754;51.106;7.164;2023-06-10T15:27:36;33.40;60.00
21193;DHT22;10754;51.106;7.164;2023-06-10T15:30:02;33.30;72.40
21193;DHT22;10754;51.106;7.164;2023-06-10T15:32:28;33.20;81.00